Time;durP1;ratioP1;P1;durP2;ratioP2;P2;SDS_P1;SDS_P2;PMS_P1;PMS_P2;Temp;Humidity;BMP_temperature;BMP_pressure;BME280_temperature;BME280_humidity;BME280_pressure;Samples;Min_cycle;Max_cycle;Signal;HPM_P1;HPM_P2
2021/08/02 00:03:35;;;;;;;0.20;0.20;;;14.60;83.90;;;;;;4510170;31;20053;-86
2021/08/02 00:06:03;;;;;;;0.43;0.30;;;14.60;83.90;;;;;;4525775;31;20462;-86
2021/08/02 00:08:47;;;;;;;0.20;0.20;;;14.60;83.90;;;;;;4569977;31;20060;-86
2021/08/02 00:11:23;;;;;;;0.20;0.20;;;14.50;84.00;;;;;;4604347;30;20051;-86
2021/08/02 00:14:00;;;;;;;0.20;0.20;;;14.50;84.00;;;;;;4633437;30;20070;-86
2021/08/02 00:16:29;;;;;;;0.30;0.30;;;14.50;84.00;;;;;;4659534;30;20108;-86
2021/08/02 00:19:17;;;;;;;0.30;0.30;;;14.50;84.00;;;;;;4651715;30;20058;-86
2021/08/02 00:21:50;;;;;;;0.40;0.30;;;14.50;84.00;;;;;;4647036;30;20521;-86
2021/08/02 00:27:49;;;;;;;0.20;0.20;;;14.50;84.10;;;;;;4631643;30;20043;-85
2021/08/02 00:30:18;;;;;;;0.30;0.30;;;14.50;84.10;;;;;;4619856;30;20520;-85
2021/08/02 00:32:43;;;;;;;0.20;0.20;;;14.50;84.00;;;;;;4667575;30;20054;-85
2021/08/02 00:35:09;;;;;;;0.30;0.30;;;14.50;84.10;;;;;;4681695;30;20057;-86
2021/08/02 00:37:51;;;;;;;0.50;0.50;;;14.70;84.10;;;;;;4681457;30;20065;-86
2021/08/02 00:40:55;;;;;;;0.45;0.30;;;14.50;84.10;;;;;;4667312;30;20120;-86
2021/08/02 00:43:57;;;;;;;0.40;0.30;;;14.40;84.10;;;;;;4666520;30;20133;-86
2021/08/02 00:46:29;;;;;;;0.60;0.40;;;14.50;84.20;;;;;;4673358;30;20146;-85
2021/08/02 00:52:50;;;;;;;0.22;0.22;;;14.50;84.30;;;;;;4663449;30;20066;-86
2021/08/02 00:55:32;;;;;;;0.30;0.30;;;14.50;84.20;;;;;;4633767;30;20058;-85
2021/08/02 00:58:08;;;;;;;0.52;0.32;;;14.60;84.20;;;;;;4660816;30;20051;-85
2021/08/02 01:00:48;;;;;;;0.22;0.22;;;14.60;84.20;;;;;;4596567;31;20417;-85
2021/08/02 01:03:32;;;;;;;0.40;0.20;;;14.60;84.20;;;;;;4612282;31;20123;-85
2021/08/02 01:05:58;;;;;;;0.63;0.43;;;14.60;84.10;;;;;;4652414;30;20510;-85
2021/08/02 01:09:42;;;;;;;0.30;0.30;;;14.60;84.10;;;;;;4635805;30;20160;-85
2021/08/02 01:11:51;;;;;;;0.32;0.30;;;14.60;84.20;;;;;;4661093;30;20086;-85
2021/08/02 01:14:19;;;;;;;0.30;0.30;;;14.50;84.10;;;;;;4649909;30;20054;-86
2021/08/02 01:16:54;;;;;;;1.13;0.40;;;14.60;84.20;;;;;;4650166;30;20858;-86
2021/08/02 01:23:46;;;;;;;0.77;0.40;;;14.50;84.30;;;;;;4621348;30;20054;-85
2021/08/02 01:26:55;;;;;;;0.30;0.30;;;14.50;85.00;;;;;;4626972;30;20088;-86
2021/08/02 01:29:53;;;;;;;0.28;0.28;;;14.50;84.40;;;;;;4593368;31;20044;-86
2021/08/02 01:32:41;;;;;;;0.32;0.32;;;14.50;84.40;;;;;;4595170;31;20438;-85
2021/08/02 01:38:09;;;;;;;0.10;0.10;;;14.50;84.30;;;;;;4530206;31;20081;-85
2021/08/02 01:40:49;;;;;;;0.30;0.30;;;14.50;84.30;;;;;;4530414;31;20194;-86
2021/08/02 01:47:14;;;;;;;0.32;0.32;;;14.50;84.30;;;;;;4405540;32;20815;-86
2021/08/02 01:50:07;;;;;;;0.20;0.20;;;14.60;84.40;;;;;;4371299;32;20061;-85
2021/08/02 01:52:39;;;;;;;;;;;14.50;84.30;;;;;;4350967;32;20070;-85
2021/08/02 01:55:12;;;;;;;0.20;0.20;;;14.50;84.30;;;;;;4344582;32;19931;-85
2021/08/02 01:57:47;;;;;;;0.30;0.30;;;14.40;84.20;;;;;;4368614;32;20055;-85
2021/08/02 02:00:14;;;;;;;0.30;0.30;;;14.40;84.30;;;;;;4370685;32;20118;-85
2021/08/02 02:02:44;;;;;;;0.30;0.30;;;14.50;84.40;;;;;;4385181;32;20134;-86
2021/08/02 02:05:17;;;;;;;0.35;0.35;;;14.50;84.40;;;;;;4387694;32;20062;-86
2021/08/02 02:07:55;;;;;;;0.20;0.20;;;14.60;84.40;;;;;;4429771;32;20144;-86
2021/08/02 02:10:25;;;;;;;0.57;0.30;;;14.60;84.50;;;;;;4485867;31;20067;-85
2021/08/02 02:12:53;;;;;;;0.43;0.43;;;14.40;84.50;;;;;;4551441;31;20053;-85
2021/08/02 02:15:22;;;;;;;0.60;0.40;;;14.50;84.50;;;;;;4565732;31;20560;-84
2021/08/02 02:17:49;;;;;;;0.50;0.40;;;14.40;84.50;;;;;;4645145;30;20522;-85
2021/08/02 02:20:26;;;;;;;1.00;0.38;;;14.60;84.60;;;;;;4718047;30;20138;-85
2021/08/02 02:22:52;;;;;;;0.63;0.50;;;14.60;84.60;;;;;;4728941;30;20062;-85
2021/08/02 02:25:18;;;;;;;0.55;0.30;;;14.60;84.70;;;;;;4741447;30;20142;-85
2021/08/02 02:27:45;;;;;;;0.30;0.30;;;14.60;84.70;;;;;;4741565;30;20176;-85
2021/08/02 02:30:11;;;;;;;0.30;0.30;;;14.60;84.70;;;;;;4741348;30;20051;-85
2021/08/02 02:32:41;;;;;;;0.30;0.30;;;14.60;84.70;;;;;;4742463;30;20100;-86
2021/08/02 02:35:08;;;;;;;0.45;0.38;;;14.60;84.80;;;;;;4740967;30;20039;-86
2021/08/02 02:41:13;;;;;;;0.22;0.22;;;14.60;84.80;;;;;;4720345;30;20093;-86
2021/08/02 02:47:45;;;;;;;0.30;0.30;;;14.60;84.90;;;;;;4679092;30;20056;-85
2021/08/02 02:50:22;;;;;;;0.30;0.30;;;14.60;84.90;;;;;;4627967;31;20114;-86
2021/08/02 02:53:49;;;;;;;0.45;0.30;;;14.50;84.80;;;;;;4627758;30;20051;-85
2021/08/02 02:57:01;;;;;;;0.30;0.30;;;14.60;84.90;;;;;;4577439;31;20056;-86
2021/08/02 03:04:12;;;;;;;0.20;0.20;;;14.60;84.90;;;;;;4583798;31;20602;-86
2021/08/02 03:07:29;;;;;;;0.30;0.30;;;14.60;84.90;;;;;;4594860;31;20525;-86
2021/08/02 03:10:49;;;;;;;0.20;0.20;;;14.60;84.90;;;;;;4561110;31;20098;-86
2021/08/02 03:17:09;;;;;;;0.40;0.30;;;14.60;85.00;;;;;;4515502;31;20067;-87
2021/08/02 03:20:05;;;;;;;0.30;0.30;;;14.50;85.00;;;;;;4532816;31;20089;-87
2021/08/02 03:26:36;;;;;;;0.30;0.30;;;14.60;85.10;;;;;;4491056;31;20540;-86
2021/08/02 03:33:22;;;;;;;0.45;0.40;;;14.60;85.10;;;;;;4507924;31;20058;-86
2021/08/02 03:36:39;;;;;;;0.75;0.60;;;14.60;85.10;;;;;;4512660;31;20133;-86
2021/08/02 03:46:02;;;;;;;0.35;0.35;;;14.50;85.00;;;;;;4532930;31;20089;-86
2021/08/02 03:48:58;;;;;;;0.40;0.40;;;14.60;85.20;;;;;;4529005;31;20414;-86
2021/08/02 03:51:57;;;;;;;0.20;0.20;;;14.50;85.10;;;;;;4545561;31;20077;-86
2021/08/02 03:54:44;;;;;;;0.10;0.10;;;14.50;85.20;;;;;;4530707;31;20050;-87
2021/08/02 03:57:18;;;;;;;0.10;0.10;;;14.60;85.20;;;;;;4532552;31;20069;-86
2021/08/02 03:59:51;;;;;;;0.25;0.22;;;14.60;85.20;;;;;;4526061;31;20054;-86
2021/08/02 04:02:17;;;;;;;0.60;0.40;;;14.60;85.20;;;;;;4503905;31;20050;-87
2021/08/02 04:04:52;;;;;;;0.40;0.32;;;14.60;85.20;;;;;;4530430;31;20065;-86
2021/08/02 04:07:44;;;;;;;0.98;0.40;;;14.50;85.80;;;;;;4532546;31;20058;-86
2021/08/02 04:10:30;;;;;;;0.20;0.20;;;14.50;85.30;;;;;;4572649;31;20049;-87
2021/08/02 04:13:07;;;;;;;0.30;0.30;;;14.60;85.20;;;;;;4541035;31;20061;-86
2021/08/02 04:15:56;;;;;;;0.50;0.43;;;14.60;85.30;;;;;;4555860;31;20445;-86
2021/08/02 04:18:33;;;;;;;1.50;0.50;;;14.60;85.20;;;;;;4575951;31;20054;-86
2021/08/02 04:21:31;;;;;;;0.22;0.20;;;14.70;85.30;;;;;;4608433;31;20060;-86
2021/08/02 04:24:12;;;;;;;0.32;0.32;;;14.60;85.30;;;;;;4579879;31;20116;-86
2021/08/02 04:27:11;;;;;;;0.20;0.20;;;14.60;85.30;;;;;;4567154;31;20052;-86
2021/08/02 04:29:48;;;;;;;0.30;0.30;;;14.70;85.40;;;;;;4616001;30;20138;-86
2021/08/02 04:32:50;;;;;;;0.28;0.28;;;14.60;85.20;;;;;;4648565;30;20494;-86
2021/08/02 04:35:50;;;;;;;0.28;0.25;;;14.70;85.40;;;;;;4623998;30;20051;-86
2021/08/02 04:38:29;;;;;;;0.40;0.30;;;14.60;85.30;;;;;;4636000;30;20138;-86
2021/08/02 04:41:16;;;;;;;0.35;0.30;;;14.60;85.30;;;;;;4612244;31;20138;-86
2021/08/02 04:44:09;;;;;;;0.38;0.30;;;14.60;85.30;;;;;;4593511;31;20068;-85
2021/08/02 04:47:00;;;;;;;0.30;0.30;;;14.60;85.30;;;;;;4553390;31;20073;-86
2021/08/02 04:49:34;;;;;;;0.20;0.20;;;14.60;85.30;;;;;;4534860;31;20054;-86
2021/08/02 04:52:06;;;;;;;0.40;0.40;;;14.60;85.20;;;;;;4534742;31;20443;-86
2021/08/02 04:54:35;;;;;;;0.22;0.22;;;14.70;85.30;;;;;;4525624;31;20058;-86
2021/08/02 04:57:03;;;;;;;0.40;0.20;;;14.70;85.30;;;;;;4535081;31;20057;-85
2021/08/02 04:59:39;;;;;;;0.47;0.35;;;14.60;85.20;;;;;;4515262;31;20059;-86
2021/08/02 05:02:16;;;;;;;0.57;0.30;;;14.70;85.30;;;;;;4501379;31;20074;-86
2021/08/02 05:04:45;;;;;;;0.35;0.35;;;14.70;85.30;;;;;;4491145;32;20055;-86
2021/08/02 05:07:14;;;;;;;1.10;0.30;;;14.70;85.30;;;;;;4529800;31;20046;-85
2021/08/02 05:09:57;;;;;;;0.30;0.30;;;14.70;85.30;;;;;;4571135;31;20141;-86
2021/08/02 05:12:35;;;;;;;0.28;0.28;;;14.70;85.30;;;;;;4542136;31;20199;-85
2021/08/02 05:15:13;;;;;;;0.30;0.30;;;14.80;85.30;;;;;;4553081;31;20086;-86
2021/08/02 05:17:53;;;;;;;0.55;0.30;;;14.70;85.30;;;;;;4557334;31;20061;-86
2021/08/02 05:23:35;;;;;;;0.47;0.30;;;14.80;85.30;;;;;;4557943;31;20518;-87
2021/08/02 05:26:21;;;;;;;0.35;0.25;;;14.80;85.30;;;;;;4524202;31;20108;-86
2021/08/02 05:29:03;;;;;;;0.30;0.30;;;14.80;85.30;;;;;;4507572;31;20536;-87
2021/08/02 05:31:55;;;;;;;0.25;0.25;;;14.90;85.30;;;;;;4487639;31;20067;-86
2021/08/02 05:34:41;;;;;;;0.10;0.10;;;14.90;85.30;;;;;;4492051;31;20185;-86
2021/08/02 05:37:29;;;;;;;0.45;0.22;;;14.90;85.20;;;;;;4514848;31;20122;-87
2021/08/02 05:40:21;;;;;;;0.30;0.30;;;14.90;85.10;;;;;;4519611;31;20062;-86
2021/08/02 05:42:53;;;;;;;0.43;0.22;;;14.90;85.00;;;;;;4508003;31;21000;-87
2021/08/02 05:45:29;;;;;;;0.20;0.20;;;15.00;85.10;;;;;;4486878;32;20059;-87
2021/08/02 05:48:33;;;;;;;0.40;0.30;;;15.10;85.20;;;;;;4498069;31;20054;-87
2021/08/02 05:51:54;;;;;;;0.38;0.30;;;15.10;85.00;;;;;;4528535;31;20062;-87
2021/08/02 05:55:19;;;;;;;0.22;0.22;;;15.20;84.90;;;;;;4527522;31;20161;-87
2021/08/02 05:59:19;;;;;;;0.30;0.30;;;15.30;84.80;;;;;;4515667;31;20149;-87
2021/08/02 06:04:52;;;;;;;0.25;0.20;;;15.40;84.40;;;;;;4549772;31;20152;-87
2021/08/02 06:07:23;;;;;;;0.30;0.30;;;15.40;84.40;;;;;;4520194;31;20384;-90
2021/08/02 06:09:50;;;;;;;0.28;0.28;;;15.40;84.30;;;;;;4532948;31;20058;-89
2021/08/02 06:12:18;;;;;;;0.32;0.30;;;15.40;84.30;;;;;;4550492;31;20058;-88
2021/08/02 06:14:44;;;;;;;0.43;0.43;;;15.50;84.30;;;;;;4549088;31;20073;-88
2021/08/02 06:17:14;;;;;;;0.47;0.40;;;15.50;84.40;;;;;;4573189;31;20041;-89
2021/08/02 06:20:06;;;;;;;0.50;0.50;;;15.40;84.40;;;;;;4559251;31;20489;-90
2021/08/02 06:25:41;;;;;;;0.30;0.30;;;15.50;84.30;;;;;;4660711;30;20010;-89
2021/08/02 06:28:07;;;;;;;0.20;0.20;;;15.60;84.40;;;;;;4666287;30;20058;-89
2021/08/02 06:30:35;;;;;;;0.25;0.25;;;15.60;84.40;;;;;;4653040;30;20061;-89
2021/08/02 06:33:00;;;;;;;0.40;0.40;;;15.60;84.40;;;;;;4632834;30;20495;-87
2021/08/02 06:35:29;;;;;;;0.40;0.30;;;15.60;84.40;;;;;;4651555;30;20039;-89
2021/08/02 06:37:57;;;;;;;0.20;0.20;;;15.60;84.40;;;;;;4634657;30;20051;-90
2021/08/02 06:40:29;;;;;;;0.28;0.20;;;15.70;84.40;;;;;;4620549;30;20133;-90
2021/08/02 06:42:54;;;;;;;0.75;0.30;;;15.70;84.20;;;;;;4595734;31;20098;-85
2021/08/02 06:45:20;;;;;;;0.60;0.45;;;15.80;84.70;;;;;;4597951;31;20076;-90
2021/08/02 06:47:47;;;;;;;1.13;0.43;;;15.80;84.00;;;;;;4600743;31;20075;-89
2021/08/02 06:50:13;;;;;;;0.40;0.20;;;15.80;83.90;;;;;;4578836;31;20056;-86
2021/08/02 06:52:38;;;;;;;0.57;0.40;;;15.90;83.70;;;;;;4579555;31;20148;-87
2021/08/02 06:55:05;;;;;;;1.08;0.40;;;16.00;83.70;;;;;;4566441;31;20059;-89
2021/08/02 06:57:30;;;;;;;0.70;0.47;;;15.90;83.50;;;;;;4579750;31;20576;-85
2021/08/02 07:00:02;;;;;;;0.73;0.40;;;16.00;83.50;;;;;;4592910;31;20148;-90
2021/08/02 07:02:28;;;;;;;0.22;0.22;;;16.00;83.40;;;;;;4600481;31;20126;-86
2021/08/02 07:04:54;;;;;;;0.43;0.35;;;16.10;83.40;;;;;;4605718;30;20047;-87
2021/08/02 07:07:19;;;;;;;0.20;0.20;;;16.10;83.30;;;;;;4624575;30;20043;-88
2021/08/02 07:09:45;;;;;;;0.57;0.20;;;16.20;83.10;;;;;;4659274;30;20085;-82
2021/08/02 07:12:11;;;;;;;0.88;0.40;;;16.30;83.00;;;;;;4690880;30;20554;-82
2021/08/02 07:14:44;;;;;;;0.30;0.30;;;16.40;82.70;;;;;;4681739;30;20117;-80
2021/08/02 07:17:10;;;;;;;0.20;0.20;;;16.50;82.40;;;;;;4693537;30;20419;-83
2021/08/02 07:19:45;;;;;;;0.90;0.35;;;16.40;82.30;;;;;;4707954;30;20050;-85
2021/08/02 07:22:11;;;;;;;0.20;0.20;;;16.50;82.30;;;;;;4721847;30;20034;-81
2021/08/02 07:24:45;;;;;;;0.35;0.30;;;16.50;82.20;;;;;;4711474;30;20432;-87
2021/08/02 07:27:14;;;;;;;0.22;0.22;;;16.60;82.00;;;;;;4702738;30;20037;-87
2021/08/02 07:29:44;;;;;;;0.35;0.20;;;16.90;81.90;;;;;;4703141;30;20145;-86
2021/08/02 07:32:10;;;;;;;0.20;0.20;;;17.00;81.50;;;;;;4704901;30;20048;-82
2021/08/02 07:34:38;;;;;;;0.32;0.30;;;17.10;81.00;;;;;;4702925;30;20045;-84
2021/08/02 07:37:04;;;;;;;0.30;0.30;;;17.20;80.80;;;;;;4702233;30;20108;-84
2021/08/02 07:39:30;;;;;;;0.20;0.20;;;17.30;80.90;;;;;;4716630;30;20497;-79
2021/08/02 07:42:03;;;;;;;0.30;0.30;;;17.40;80.60;;;;;;4731678;30;20044;-85
2021/08/02 07:44:30;;;;;;;0.30;0.15;;;17.40;80.20;;;;;;4740264;30;20056;-82
2021/08/02 07:46:58;;;;;;;0.60;0.30;;;17.30;80.20;;;;;;4751750;30;20215;-87
2021/08/02 07:49:27;;;;;;;0.50;0.30;;;17.20;80.30;;;;;;4751349;30;20069;-86
2021/08/02 07:51:55;;;;;;;0.45;0.30;;;17.20;80.50;;;;;;4751392;30;20597;-87
2021/08/02 07:54:37;;;;;;;0.50;0.50;;;17.20;80.50;;;;;;4744416;30;20045;-86
2021/08/02 07:57:03;;;;;;;0.55;0.30;;;17.20;80.70;;;;;;4718188;30;20147;-84
2021/08/02 07:59:29;;;;;;;0.20;0.20;;;17.10;80.90;;;;;;4736752;30;20139;-85
2021/08/02 08:02:05;;;;;;;0.22;0.22;;;17.10;81.00;;;;;;4740603;30;20056;-88
2021/08/02 08:04:31;;;;;;;0.28;0.28;;;17.20;81.00;;;;;;4755607;30;20131;-83
2021/08/02 08:06:57;;;;;;;0.28;0.28;;;17.30;80.70;;;;;;4769548;30;20130;-84
2021/08/02 08:09:24;;;;;;;0.30;0.30;;;17.50;80.80;;;;;;4754750;30;20585;-83
2021/08/02 08:11:50;;;;;;;0.35;0.30;;;17.80;80.50;;;;;;4725213;30;20056;-83
2021/08/02 08:14:16;;;;;;;0.93;0.43;;;18.10;79.90;;;;;;4768985;30;20050;-84
2021/08/02 08:16:41;;;;;;;0.30;0.30;;;18.40;79.20;;;;;;4754412;30;20490;-83
2021/08/02 08:19:07;;;;;;;0.40;0.40;;;18.80;78.60;;;;;;4768795;30;20105;-82
2021/08/02 08:21:35;;;;;;;0.30;0.30;;;19.00;77.90;;;;;;4768796;30;20196;-82
2021/08/02 08:24:04;;;;;;;0.35;0.30;;;19.00;77.80;;;;;;4753831;30;20060;-80
2021/08/02 08:26:29;;;;;;;0.25;0.25;;;19.00;77.40;;;;;;4769179;30;20571;-79
2021/08/02 08:28:55;;;;;;;0.40;0.40;;;19.10;77.70;;;;;;4785966;29;20050;-80
2021/08/02 08:31:21;;;;;;;0.40;0.40;;;19.30;77.60;;;;;;4790808;29;20403;-81
2021/08/02 08:33:49;;;;;;;0.20;0.20;;;19.40;77.00;;;;;;4789057;29;20519;-80
2021/08/02 08:36:16;;;;;;;0.22;0.22;;;19.40;76.90;;;;;;4760821;29;20100;-79
2021/08/02 08:38:43;;;;;;;0.43;0.40;;;19.20;77.30;;;;;;4806212;29;20059;-79
2021/08/02 08:41:12;;;;;;;0.65;0.35;;;19.00;77.70;;;;;;4790464;29;20043;-81
2021/08/02 08:43:39;;;;;;;0.30;0.30;;;18.80;78.00;;;;;;4790128;29;20486;-80
2021/08/02 08:46:05;;;;;;;0.38;0.32;;;18.70;78.50;;;;;;4790908;29;20058;-84
2021/08/02 08:52:39;;;;;;;0.30;0.30;;;18.40;79.20;;;;;;4682786;30;20072;-87
2021/08/02 08:55:13;;;;;;;0.20;0.20;;;18.30;79.50;;;;;;4613330;31;20044;-87
2021/08/02 08:57:40;;;;;;;1.00;0.30;;;18.30;79.60;;;;;;4600887;31;20063;-85
2021/08/02 09:03:35;;;;;;;0.30;0.30;;;18.40;79.50;;;;;;4595673;31;20531;-87
2021/08/02 09:06:04;;;;;;;0.40;0.40;;;18.40;79.40;;;;;;4611492;31;20115;-85
2021/08/02 09:09:09;;;;;;;0.30;0.30;;;18.20;79.10;;;;;;4610501;31;20544;-88
2021/08/02 09:11:43;;;;;;;0.40;0.40;;;18.20;79.30;;;;;;4590712;31;20052;-87
2021/08/02 09:14:15;;;;;;;0.20;0.20;;;18.10;79.40;;;;;;4580192;31;20139;-87
2021/08/02 09:17:15;;;;;;;0.30;0.30;;;18.10;79.60;;;;;;4551622;31;20131;-87
2021/08/02 09:19:41;;;;;;;1.25;0.50;;;18.00;79.60;;;;;;4562920;31;20045;-85
2021/08/02 09:22:11;;;;;;;0.40;0.40;;;18.20;79.30;;;;;;4556174;31;20044;-86
2021/08/02 09:24:42;;;;;;;0.40;0.40;;;18.20;79.10;;;;;;4580496;31;20127;-87
2021/08/02 09:33:45;;;;;;;0.40;0.40;;;18.20;79.00;;;;;;4630124;30;20076;-86
2021/08/02 09:44:16;;;;;;;1.08;0.30;;;18.30;78.20;;;;;;4651242;30;20058;-88
2021/08/02 09:47:03;;;;;;;0.30;0.30;;;18.40;77.80;;;;;;4634082;30;20094;-86
2021/08/02 09:50:09;;;;;;;0.75;0.30;;;18.50;77.70;;;;;;4609253;31;20052;-90
2021/08/02 10:00:51;;;;;;;0.30;0.30;;;18.80;76.80;;;;;;4680133;30;20054;-87
2021/08/02 10:03:23;;;;;;;0.40;0.40;;;18.90;76.50;;;;;;4662157;30;20054;-85
2021/08/02 10:06:05;;;;;;;0.40;0.40;;;19.00;76.30;;;;;;4664458;30;20196;-86
2021/08/02 10:12:14;;;;;;;0.32;0.32;;;19.30;76.00;;;;;;4553529;31;20111;-85
2021/08/02 10:15:00;;;;;;;0.55;0.32;;;19.70;75.40;;;;;;4561182;31;20069;-83
2021/08/02 10:17:26;;;;;;;0.43;0.30;;;19.90;74.60;;;;;;4552302;31;20061;-85
2021/08/02 10:19:56;;;;;;;0.52;0.40;;;19.90;74.50;;;;;;4582702;31;20099;-86
2021/08/02 10:23:03;;;;;;;0.30;0.30;;;19.90;74.70;;;;;;4566752;31;20113;-87
2021/08/02 10:26:02;;;;;;;0.32;0.30;;;19.90;74.80;;;;;;4576388;31;20113;-86
2021/08/02 10:29:25;;;;;;;0.40;0.40;;;19.90;75.00;;;;;;4548096;31;20050;-89
2021/08/02 10:31:51;;;;;;;0.30;0.30;;;19.80;74.90;;;;;;4549455;31;20089;-84
2021/08/02 10:34:20;;;;;;;0.52;0.35;;;19.80;75.10;;;;;;4547906;31;20041;-84
2021/08/02 10:36:59;;;;;;;0.38;0.38;;;19.80;75.00;;;;;;4536162;31;21037;-84
2021/08/02 10:39:28;;;;;;;0.40;0.35;;;19.70;74.90;;;;;;4575664;31;20060;-83
2021/08/02 10:42:12;;;;;;;0.32;0.32;;;19.60;75.10;;;;;;4609429;31;20052;-82
2021/08/02 10:44:38;;;;;;;0.30;0.30;;;19.60;75.00;;;;;;4594188;31;21101;-83
2021/08/02 10:47:09;;;;;;;0.98;0.32;;;19.60;75.30;;;;;;4609800;31;20130;-83
2021/08/02 10:49:36;;;;;;;1.30;0.60;;;19.50;75.40;;;;;;4629740;31;20150;-86
2021/08/02 10:52:04;;;;;;;0.68;0.47;;;19.60;75.40;;;;;;4643455;30;20583;-86
2021/08/02 10:54:45;;;;;;;0.55;0.40;;;19.60;75.20;;;;;;4661349;30;20061;-84
2021/08/02 10:57:13;;;;;;;0.30;0.30;;;19.70;74.80;;;;;;4631748;30;20047;-84
2021/08/02 10:59:38;;;;;;;0.55;0.50;;;19.70;74.70;;;;;;4656034;30;20039;-85
2021/08/02 11:02:10;;;;;;;0.52;0.30;;;19.70;74.70;;;;;;4634219;30;20054;-85
2021/08/02 11:04:42;;;;;;;2.00;0.47;;;19.70;74.60;;;;;;4691227;29;20046;-88
2021/08/02 11:07:09;;;;;;;0.20;0.20;;;19.80;74.40;;;;;;4774354;29;20067;-84
2021/08/02 11:09:36;;;;;;;0.82;0.38;;;19.80;74.30;;;;;;4787537;29;20056;-84
2021/08/02 11:12:29;;;;;;;0.40;0.40;;;19.80;74.00;;;;;;4789246;29;20051;-86
2021/08/02 11:14:55;;;;;;;0.20;0.20;;;19.90;73.80;;;;;;4735099;30;20547;-87
2021/08/02 11:17:24;;;;;;;0.20;0.20;;;19.90;73.90;;;;;;4705253;30;20083;-86
2021/08/02 11:23:40;;;;;;;0.20;0.20;;;20.00;73.70;;;;;;4714737;30;20593;-88
2021/08/02 11:26:16;;;;;;;0.20;0.20;;;20.30;73.40;;;;;;4668320;30;20045;-88
2021/08/02 11:28:56;;;;;;;1.05;0.45;;;20.30;73.00;;;;;;4666800;30;20050;-88
2021/08/02 11:31:47;;;;;;;0.22;0.22;;;20.50;72.50;;;;;;4647608;30;20062;-88
2021/08/02 11:34:20;;;;;;;0.75;0.30;;;20.60;72.40;;;;;;4648181;30;20046;-87
2021/08/02 11:37:08;;;;;;;0.52;0.30;;;20.70;72.10;;;;;;4650016;30;20058;-86
2021/08/02 11:39:36;;;;;;;0.55;0.32;;;20.80;71.80;;;;;;4661556;30;20049;-85
2021/08/02 11:42:05;;;;;;;0.20;0.20;;;20.90;71.80;;;;;;4682368;30;20127;-83
2021/08/02 11:44:33;;;;;;;0.30;0.30;;;20.80;71.90;;;;;;4682228;30;20439;-84
2021/08/02 11:47:00;;;;;;;0.30;0.30;;;20.90;72.10;;;;;;4682409;30;20061;-84
2021/08/02 11:49:38;;;;;;;0.20;0.20;;;20.80;72.10;;;;;;4682514;30;20103;-86
2021/08/02 11:52:17;;;;;;;0.98;0.22;;;20.80;72.00;;;;;;4682759;30;20100;-89
2021/08/02 11:54:46;;;;;;;0.85;0.32;;;20.80;72.00;;;;;;4669494;30;20074;-83
2021/08/02 11:57:19;;;;;;;0.35;0.20;;;20.60;72.00;;;;;;4672551;30;20053;-89
2021/08/02 12:00:04;;;;;;;0.80;0.30;;;20.70;72.00;;;;;;4699157;30;20478;-86
2021/08/02 12:02:51;;;;;;;0.82;0.40;;;20.80;71.50;;;;;;4733635;30;20108;-88
2021/08/02 12:05:25;;;;;;;0.50;0.30;;;20.80;71.20;;;;;;4769407;29;20142;-85
2021/08/02 12:07:52;;;;;;;0.20;0.20;;;20.80;71.40;;;;;;4776124;29;20059;-81
2021/08/02 12:10:21;;;;;;;0.60;0.40;;;20.80;71.40;;;;;;4808174;29;20058;-85
2021/08/02 12:13:06;;;;;;;0.30;0.30;;;20.70;71.30;;;;;;4776427;29;20053;-85
2021/08/02 12:15:33;;;;;;;0.30;0.30;;;20.70;71.30;;;;;;4774722;29;20798;-84
2021/08/02 12:17:58;;;;;;;0.30;0.30;;;20.70;71.30;;;;;;4776854;29;20035;-82
2021/08/02 12:20:32;;;;;;;0.30;0.30;;;20.60;71.10;;;;;;4793619;29;20120;-84
2021/08/02 12:22:59;;;;;;;0.30;0.25;;;20.60;70.90;;;;;;4790594;29;20043;-85
2021/08/02 12:25:59;;;;;;;0.30;0.30;;;20.80;70.70;;;;;;4777281;29;20114;-92
2021/08/02 12:28:25;;;;;;;0.25;0.25;;;20.80;70.30;;;;;;4759938;29;20077;-85
2021/08/02 12:31:13;;;;;;;0.40;0.30;;;20.80;70.40;;;;;;4775709;29;20043;-90
2021/08/02 12:33:38;;;;;;;0.32;0.30;;;20.90;70.10;;;;;;4735337;30;20517;-86
2021/08/02 12:36:04;;;;;;;0.20;0.20;;;20.90;70.10;;;;;;4734692;30;20067;-86
2021/08/02 12:38:45;;;;;;;0.30;0.30;;;21.00;70.00;;;;;;4707353;30;20508;-85
2021/08/02 12:41:11;;;;;;;0.60;0.40;;;21.00;69.90;;;;;;4709836;30;20052;-86
2021/08/02 12:43:37;;;;;;;0.20;0.20;;;21.00;70.00;;;;;;4751128;30;20504;-85
2021/08/02 12:46:03;;;;;;;1.48;0.40;;;21.00;69.90;;;;;;4750772;30;20044;-86
2021/08/02 12:48:29;;;;;;;0.30;0.30;;;21.20;69.70;;;;;;4735241;30;20048;-85
2021/08/02 12:50:54;;;;;;;0.30;0.30;;;21.00;69.50;;;;;;4721691;30;20063;-87
2021/08/02 12:53:20;;;;;;;0.43;0.30;;;21.10;69.50;;;;;;4736400;30;20032;-86
2021/08/02 12:55:52;;;;;;;0.28;0.28;;;21.10;69.40;;;;;;4721820;30;20500;-90
2021/08/02 13:05:41;;;;;;;;;;;20.80;70.00;;;;;;4744635;30;20558;-87
2021/08/02 13:08:12;;;;;;;0.25;0.25;;;20.70;70.30;;;;;;4733665;30;19963;-89
2021/08/02 13:11:16;;;;;;;0.30;0.30;;;20.70;70.40;;;;;;4692281;30;20063;-89
2021/08/02 13:13:47;;;;;;;0.25;0.25;;;20.50;70.20;;;;;;4722216;30;20087;-89
2021/08/02 13:16:32;;;;;;;0.65;0.30;;;20.40;70.50;;;;;;4691419;30;20049;-88
2021/08/02 13:19:08;;;;;;;0.10;0.10;;;20.30;70.50;;;;;;4696493;30;20432;-87
2021/08/02 13:21:34;;;;;;;0.70;0.22;;;20.20;70.70;;;;;;4732687;30;20063;-86
2021/08/02 13:29:30;;;;;;;0.25;0.25;;;20.30;70.40;;;;;;4764462;29;20034;-84
2021/08/02 13:31:58;;;;;;;0.20;0.20;;;20.50;70.30;;;;;;4789179;29;20070;-83
2021/08/02 13:34:30;;;;;;;0.63;0.45;;;20.50;70.10;;;;;;4806104;29;20486;-87
2021/08/02 13:36:57;;;;;;;0.65;0.30;;;20.50;69.90;;;;;;4737093;30;20056;-84
2021/08/02 13:39:24;;;;;;;0.38;0.38;;;20.50;69.70;;;;;;4721994;30;20480;-83
2021/08/02 13:41:50;;;;;;;0.30;0.30;;;20.50;69.70;;;;;;4720494;30;20040;-82
2021/08/02 13:44:19;;;;;;;0.70;0.40;;;20.50;69.60;;;;;;4736291;30;20144;-84
2021/08/02 13:46:47;;;;;;;0.40;0.40;;;20.40;70.20;;;;;;4735005;30;20042;-85
2021/08/02 13:49:16;;;;;;;0.52;0.47;;;20.30;69.60;;;;;;4737954;30;20525;-88
2021/08/02 13:52:19;;;;;;;0.98;0.60;;;20.30;69.90;;;;;;4707871;30;20053;-88
2021/08/02 13:54:47;;;;;;;0.50;0.50;;;20.20;69.90;;;;;;4704411;30;20060;-85
2021/08/02 13:57:13;;;;;;;0.43;0.40;;;20.10;70.00;;;;;;4679656;30;20054;-83
2021/08/02 13:59:39;;;;;;;0.70;0.43;;;20.00;70.20;;;;;;4680800;30;20145;-84
2021/08/02 14:02:09;;;;;;;0.43;0.20;;;19.90;70.40;;;;;;4667242;30;20049;-87
2021/08/02 14:04:38;;;;;;;0.63;0.40;;;19.90;70.30;;;;;;4681212;30;20083;-86
2021/08/02 14:07:10;;;;;;;0.45;0.30;;;20.10;70.20;;;;;;4666286;30;20046;-89
2021/08/02 14:14:36;;;;;;;0.55;0.43;;;20.30;69.40;;;;;;4573572;31;20077;-86
2021/08/02 14:16:55;;;;;;;;;;;20.50;69.10;;;;;;4550652;31;20066;-84
2021/08/02 14:19:26;;;;;;;0.30;0.30;;;20.40;68.80;;;;;;4511002;31;19945;-83
2021/08/02 14:21:56;;;;;;;;;;;20.50;68.90;;;;;;4514766;31;20041;-82
2021/08/02 14:24:24;;;;;;;0.20;0.20;;;20.40;68.90;;;;;;4563438;31;19914;-85
2021/08/02 14:26:54;;;;;;;0.25;0.25;;;20.40;68.90;;;;;;4562666;31;20041;-86
2021/08/02 14:29:20;;;;;;;0.30;0.30;;;20.40;69.50;;;;;;4563713;31;20044;-84
2021/08/02 14:31:46;;;;;;;0.30;0.30;;;20.30;68.90;;;;;;4565720;31;20055;-83
2021/08/02 14:34:14;;;;;;;0.40;0.40;;;20.40;68.90;;;;;;4565282;31;20437;-84
2021/08/02 14:36:42;;;;;;;0.63;0.52;;;20.30;68.90;;;;;;4568243;31;20465;-82
2021/08/02 14:39:09;;;;;;;0.28;0.20;;;20.40;69.00;;;;;;4599136;31;20193;-83
2021/08/02 14:42:01;;;;;;;0.88;0.30;;;20.40;68.90;;;;;;4683320;30;20044;-85
2021/08/02 14:44:39;;;;;;;0.60;0.40;;;20.40;68.70;;;;;;4662401;30;20058;-85
2021/08/02 14:47:08;;;;;;;0.30;0.30;;;20.30;68.60;;;;;;4682772;30;20152;-83
2021/08/02 14:49:39;;;;;;;1.50;0.40;;;20.30;68.70;;;;;;4696435;30;20103;-81
2021/08/02 14:52:06;;;;;;;0.35;0.35;;;20.30;68.60;;;;;;4682475;30;20128;-82
2021/08/02 14:54:32;;;;;;;1.23;0.20;;;20.40;68.70;;;;;;4696890;30;20043;-81
2021/08/02 14:57:01;;;;;;;0.30;0.30;;;20.30;68.60;;;;;;4680655;30;20103;-82
2021/08/02 14:59:28;;;;;;;1.27;0.32;;;20.30;68.60;;;;;;4697863;30;20505;-86
2021/08/02 15:01:55;;;;;;;0.57;0.20;;;20.40;68.60;;;;;;4692422;30;20092;-86
2021/08/02 15:04:25;;;;;;;1.00;0.50;;;20.40;68.50;;;;;;4699559;30;20041;-84
2021/08/02 15:07:12;;;;;;;0.32;0.32;;;20.40;68.30;;;;;;4696751;30;20045;-86
2021/08/02 15:09:40;;;;;;;0.40;0.22;;;20.60;68.30;;;;;;4691081;30;20064;-86
2021/08/02 15:12:28;;;;;;;0.40;0.30;;;20.60;68.20;;;;;;4696612;30;20141;-87
2021/08/02 15:14:54;;;;;;;0.65;0.20;;;20.50;68.10;;;;;;4707821;30;20033;-85
2021/08/02 15:17:21;;;;;;;0.22;0.22;;;20.50;68.20;;;;;;4708544;30;20142;-86
2021/08/02 15:20:03;;;;;;;2.15;0.55;;;20.50;68.40;;;;;;4709038;30;20460;-87
2021/08/02 15:22:47;;;;;;;0.50;0.50;;;20.60;68.10;;;;;;4704490;30;20049;-86
2021/08/02 15:25:17;;;;;;;0.70;0.43;;;20.50;67.60;;;;;;4706032;30;20056;-85
2021/08/02 15:27:47;;;;;;;0.35;0.30;;;20.60;67.70;;;;;;4719580;30;20049;-84